sensor_id;sensor_type;location;lat;lon;timestamp;pressure;altitude;pressure_sealevel;temperature;humidity
29197;BME280;62796;42.654;23.316;2023-04-06T00:00:49;94315.19;;;2.40;50.36
29197;BME280;62796;42.654;23.316;2023-04-06T00:03:14;94303.72;;;2.45;50.30
29197;BME280;62796;42.654;23.316;2023-04-06T00:05:40;94305.25;;;2.46;50.12
29197;BME280;62796;42.654;23.316;2023-04-06T00:08:06;94303.72;;;2.45;50.34
29197;BME280;62796;42.654;23.316;2023-04-06T00:10:31;94284.25;;;2.43;49.90
29197;BME280;62796;42.654;23.316;2023-04-06T00:12:58;94296.06;;;2.53;50.22
29197;BME280;62796;42.654;23.316;2023-04-06T00:15:24;94281.63;;;2.52;49.56
29197;BME280;62796;42.654;23.316;2023-04-06T00:17:50;94295.38;;;2.74;49.01
29197;BME280;62796;42.654;23.316;2023-04-06T00:20:16;94292.84;;;2.79;48.90
29197;BME280;62796;42.654;23.316;2023-04-06T00:22:41;94262.59;;;2.61;49.23
29197;BME280;62796;42.654;23.316;2023-04-06T00:25:08;94256.03;;;2.59;48.87
29197;BME280;62796;42.654;23.316;2023-04-06T00:27:35;94285.34;;;2.58;49.00
29197;BME280;62796;42.654;23.316;2023-04-06T00:30:01;94291.22;;;2.69;48.90
29197;BME280;62796;42.654;23.316;2023-04-06T00:32:26;94256.34;;;2.61;48.88
29197;BME280;62796;42.654;23.316;2023-04-06T00:34:52;94280.44;;;2.88;48.78
29197;BME280;62796;42.654;23.316;2023-04-06T00:37:18;94277.91;;;2.93;48.67
29197;BME280;62796;42.654;23.316;2023-04-06T00:39:44;94280.75;;;2.55;49.00
29197;BME280;62796;42.654;23.316;2023-04-06T00:42:13;94275.50;;;2.48;50.10
29197;BME280;62796;42.654;23.316;2023-04-06T00:44:42;94264.34;;;2.55;49.49
29197;BME280;62796;42.654;23.316;2023-04-06T00:47:08;94240.63;;;2.40;49.68
29197;BME280;62796;42.654;23.316;2023-04-06T00:49:33;94275.38;;;2.52;50.07
29197;BME280;62796;42.654;23.316;2023-04-06T00:52:00;94262.06;;;2.54;49.71
29197;BME280;62796;42.654;23.316;2023-04-06T00:54:27;94276.69;;;2.60;49.95
29197;BME280;62796;42.654;23.316;2023-04-06T00:56:52;94265.44;;;2.45;49.96
29197;BME280;62796;42.654;23.316;2023-04-06T00:59:18;94231.34;;;2.37;50.06
29197;BME280;62796;42.654;23.316;2023-04-06T01:01:43;94274.19;;;2.65;49.80
29197;BME280;62796;42.654;23.316;2023-04-06T01:04:09;94274.28;;;2.62;50.01
29197;BME280;62796;42.654;23.316;2023-04-06T01:06:35;94250.25;;;2.57;49.98
29197;BME280;62796;42.654;23.316;2023-04-06T01:09:00;94272.16;;;2.78;50.24
29197;BME280;62796;42.654;23.316;2023-04-06T01:11:26;94237.00;;;2.55;49.67
29197;BME280;62796;42.654;23.316;2023-04-06T01:13:52;94231.31;;;2.62;49.42
29197;BME280;62796;42.654;23.316;2023-04-06T01:16:18;94266.38;;;2.76;49.81
29197;BME280;62796;42.654;23.316;2023-04-06T01:18:44;94242.09;;;2.66;49.73
29197;BME280;62796;42.654;23.316;2023-04-06T01:21:09;94256.72;;;2.85;49.64
29197;BME280;62796;42.654;23.316;2023-04-06T01:23:42;94256.53;;;2.79;49.94
29197;BME280;62796;42.654;23.316;2023-04-06T01:26:08;94260.72;;;2.71;49.78
29197;BME280;62796;42.654;23.316;2023-04-06T01:28:33;94263.97;;;2.66;49.82
29197;BME280;62796;42.654;23.316;2023-04-06T01:30:59;94261.25;;;2.66;50.36
29197;BME280;62796;42.654;23.316;2023-04-06T01:33:25;94256.88;;;2.68;50.25
29197;BME280;62796;42.654;23.316;2023-04-06T01:35:50;94257.53;;;2.72;50.18
29197;BME280;62796;42.654;23.316;2023-04-06T01:38:16;94249.78;;;2.71;50.33
29197;BME280;62796;42.654;23.316;2023-04-06T01:40:41;94219.94;;;2.51;50.06
29197;BME280;62796;42.654;23.316;2023-04-06T01:43:07;94226.94;;;2.52;50.38
29197;BME280;62796;42.654;23.316;2023-04-06T01:45:32;94224.44;;;2.45;50.43
29197;BME280;62796;42.654;23.316;2023-04-06T01:47:57;94237.00;;;2.55;50.93
29197;BME280;62796;42.654;23.316;2023-04-06T01:50:23;94242.78;;;2.57;50.46
29197;BME280;62796;42.654;23.316;2023-04-06T01:52:48;94219.44;;;2.44;51.12
29197;BME280;62796;42.654;23.316;2023-04-06T01:55:14;94237.41;;;2.66;50.88
29197;BME280;62796;42.654;23.316;2023-04-06T01:57:39;94211.66;;;2.42;50.45
29197;BME280;62796;42.654;23.316;2023-04-06T02:00:05;94232.88;;;2.51;50.78
29197;BME280;62796;42.654;23.316;2023-04-06T02:02:31;94236.25;;;2.55;50.82
29197;BME280;62796;42.654;23.316;2023-04-06T02:04:56;94229.13;;;2.57;50.93
29197;BME280;62796;42.654;23.316;2023-04-06T02:07:22;94228.00;;;2.67;50.47
29197;BME280;62796;42.654;23.316;2023-04-06T02:09:47;94236.97;;;2.68;50.67
29197;BME280;62796;42.654;23.316;2023-04-06T02:12:13;94235.91;;;2.65;50.44
29197;BME280;62796;42.654;23.316;2023-04-06T02:14:38;94234.88;;;2.72;50.08
29197;BME280;62796;42.654;23.316;2023-04-06T02:17:03;94227.44;;;2.72;50.49
29197;BME280;62796;42.654;23.316;2023-04-06T02:19:29;94236.78;;;2.62;50.41
29197;BME280;62796;42.654;23.316;2023-04-06T02:21:54;94240.88;;;2.79;50.21
29197;BME280;62796;42.654;23.316;2023-04-06T02:24:20;94212.50;;;2.64;50.46
29197;BME280;62796;42.654;23.316;2023-04-06T02:26:46;94221.44;;;2.77;49.73
29197;BME280;62796;42.654;23.316;2023-04-06T02:29:11;94253.75;;;2.92;49.91
29197;BME280;62796;42.654;23.316;2023-04-06T02:31:37;94232.50;;;2.96;50.03
29197;BME280;62796;42.654;23.316;2023-04-06T02:34:02;94230.91;;;2.86;50.18
29197;BME280;62796;42.654;23.316;2023-04-06T02:36:27;94240.50;;;2.90;49.99
29197;BME280;62796;42.654;23.316;2023-04-06T02:38:53;94229.28;;;2.75;49.85
29197;BME280;62796;42.654;23.316;2023-04-06T02:41:18;94217.94;;;2.77;49.58
29197;BME280;62796;42.654;23.316;2023-04-06T02:43:44;94228.06;;;2.89;50.01
29197;BME280;62796;42.654;23.316;2023-04-06T02:46:10;94224.25;;;2.87;50.23
29197;BME280;62796;42.654;23.316;2023-04-06T02:48:35;94198.59;;;2.71;49.73
29197;BME280;62796;42.654;23.316;2023-04-06T02:51:02;94220.63;;;2.90;49.61
29197;BME280;62796;42.654;23.316;2023-04-06T02:53:27;94227.94;;;2.93;49.90
29197;BME280;62796;42.654;23.316;2023-04-06T02:55:53;94210.50;;;2.77;50.15
29197;BME280;62796;42.654;23.316;2023-04-06T02:58:18;94224.66;;;2.85;50.38
29197;BME280;62796;42.654;23.316;2023-04-06T03:00:44;94220.41;;;2.84;50.01
29197;BME280;62796;42.654;23.316;2023-04-06T03:03:09;94225.94;;;2.93;50.07
29197;BME280;62796;42.654;23.316;2023-04-06T03:05:35;94230.97;;;2.95;49.91
29197;BME280;62796;42.654;23.316;2023-04-06T03:08:00;94204.13;;;2.81;49.78
29197;BME280;62796;42.654;23.316;2023-04-06T03:10:25;94210.22;;;2.85;50.18
29197;BME280;62796;42.654;23.316;2023-04-06T03:12:51;94220.94;;;2.92;50.74
29197;BME280;62796;42.654;23.316;2023-04-06T03:15:16;94214.94;;;2.84;50.56
29197;BME280;62796;42.654;23.316;2023-04-06T03:17:42;94219.31;;;2.82;50.72
29197;BME280;62796;42.654;23.316;2023-04-06T03:20:08;94221.75;;;2.79;50.48
29197;BME280;62796;42.654;23.316;2023-04-06T03:22:33;94218.69;;;2.77;50.46
29197;BME280;62796;42.654;23.316;2023-04-06T03:24:59;94223.63;;;2.70;50.89
29197;BME280;62796;42.654;23.316;2023-04-06T03:27:24;94224.72;;;2.72;51.00
29197;BME280;62796;42.654;23.316;2023-04-06T03:29:50;94215.00;;;2.71;51.00
29197;BME280;62796;42.654;23.316;2023-04-06T03:32:15;94220.66;;;2.77;51.16
29197;BME280;62796;42.654;23.316;2023-04-06T03:34:41;94207.69;;;2.68;50.88
29197;BME280;62796;42.654;23.316;2023-04-06T03:37:06;94203.88;;;2.53;50.85
29197;BME280;62796;42.654;23.316;2023-04-06T03:39:32;94224.72;;;2.72;50.90
29197;BME280;62796;42.654;23.316;2023-04-06T03:41:57;94223.44;;;2.64;50.81
29197;BME280;62796;42.654;23.316;2023-04-06T03:44:23;94228.78;;;2.68;50.34
29197;BME280;62796;42.654;23.316;2023-04-06T03:46:48;94233.38;;;2.71;50.56
29197;BME280;62796;42.654;23.316;2023-04-06T03:49:13;94233.25;;;2.74;50.33
29197;BME280;62796;42.654;23.316;2023-04-06T03:51:39;94234.38;;;2.64;50.82
29197;BME280;62796;42.654;23.316;2023-04-06T03:54:05;94220.59;;;2.55;50.31
29197;BME280;62796;42.654;23.316;2023-04-06T03:56:30;94215.06;;;2.34;51.33
29197;BME280;62796;42.654;23.316;2023-04-06T03:58:56;94226.28;;;2.48;50.63
29197;BME280;62796;42.654;23.316;2023-04-06T04:01:21;94221.88;;;2.63;50.30
29197;BME280;62796;42.654;23.316;2023-04-06T04:03:47;94223.19;;;2.71;50.15
29197;BME280;62796;42.654;23.316;2023-04-06T04:06:12;94220.81;;;2.61;49.89
29197;BME280;62796;42.654;23.316;2023-04-06T04:08:38;94227.44;;;2.72;50.21
29197;BME280;62796;42.654;23.316;2023-04-06T04:11:03;94228.00;;;2.67;50.11
29197;BME280;62796;42.654;23.316;2023-04-06T04:13:29;94205.41;;;2.54;50.02
29197;BME280;62796;42.654;23.316;2023-04-06T04:15:54;94227.53;;;2.82;50.12
29197;BME280;62796;42.654;23.316;2023-04-06T04:18:20;94228.94;;;2.86;50.20
29197;BME280;62796;42.654;23.316;2023-04-06T04:20:45;94224.28;;;2.96;50.17
29197;BME280;62796;42.654;23.316;2023-04-06T04:23:11;94224.94;;;3.00;49.88
29197;BME280;62796;42.654;23.316;2023-04-06T04:25:36;94231.38;;;3.06;49.18
29197;BME280;62796;42.654;23.316;2023-04-06T04:28:02;94210.50;;;2.99;49.34
29197;BME280;62796;42.654;23.316;2023-04-06T04:30:27;94209.22;;;2.91;49.22
29197;BME280;62796;42.654;23.316;2023-04-06T04:32:53;94201.78;;;2.92;49.21
29197;BME280;62796;42.654;23.316;2023-04-06T04:35:19;94233.28;;;3.18;48.76
29197;BME280;62796;42.654;23.316;2023-04-06T04:37:45;94234.56;;;3.26;49.12
29197;BME280;62796;42.654;23.316;2023-04-06T04:40:11;94217.19;;;3.20;48.46
29197;BME280;62796;42.654;23.316;2023-04-06T04:42:36;94241.06;;;3.19;49.25
29197;BME280;62796;42.654;23.316;2023-04-06T04:45:02;94234.25;;;3.24;48.96
29197;BME280;62796;42.654;23.316;2023-04-06T04:47:27;94218.13;;;3.26;48.97
29197;BME280;62796;42.654;23.316;2023-04-06T04:49:53;94202.59;;;3.23;48.88
29197;BME280;62796;42.654;23.316;2023-04-06T04:52:18;94231.69;;;3.51;48.65
29197;BME280;62796;42.654;23.316;2023-04-06T04:54:43;94234.28;;;2.90;50.18
29197;BME280;62796;42.654;23.316;2023-04-06T04:57:09;94210.88;;;2.89;49.54
29197;BME280;62796;42.654;23.316;2023-04-06T04:59:34;94238.22;;;2.89;50.36
29197;BME280;62796;42.654;23.316;2023-04-06T05:02:00;94228.13;;;3.20;49.21
29197;BME280;62796;42.654;23.316;2023-04-06T05:04:26;94229.59;;;3.33;48.67
29197;BME280;62796;42.654;23.316;2023-04-06T05:07:02;94233.91;;;3.44;48.66
29197;BME280;62796;42.654;23.316;2023-04-06T05:09:29;94238.75;;;3.61;48.36
29197;BME280;62796;42.654;23.316;2023-04-06T05:11:55;94224.19;;;3.43;48.29
29197;BME280;62796;42.654;23.316;2023-04-06T05:14:21;94227.53;;;3.68;48.10
29197;BME280;62796;42.654;23.316;2023-04-06T05:16:46;94230.81;;;3.85;47.91
29197;BME280;62796;42.654;23.316;2023-04-06T05:19:12;94200.47;;;3.79;47.20
29197;BME280;62796;42.654;23.316;2023-04-06T05:21:37;94228.03;;;3.76;47.70
29197;BME280;62796;42.654;23.316;2023-04-06T05:24:03;94229.06;;;3.69;48.01
29197;BME280;62796;42.654;23.316;2023-04-06T05:26:28;94227.50;;;3.90;47.80
29197;BME280;62796;42.654;23.316;2023-04-06T05:28:54;94201.72;;;3.78;47.87
29197;BME280;62796;42.654;23.316;2023-04-06T05:31:20;94200.44;;;3.61;48.29
29197;BME280;62796;42.654;23.316;2023-04-06T05:33:45;94229.94;;;3.88;48.55
29197;BME280;62796;42.654;23.316;2023-04-06T05:36:11;94237.91;;;4.04;47.67
29197;BME280;62796;42.654;23.316;2023-04-06T05:38:37;94233.53;;;4.16;47.43
29197;BME280;62796;42.654;23.316;2023-04-06T05:41:02;94228.72;;;4.29;47.36
29197;BME280;62796;42.654;23.316;2023-04-06T05:43:28;94225.09;;;4.41;46.98
29197;BME280;62796;42.654;23.316;2023-04-06T05:45:53;94224.16;;;4.35;46.56
29197;BME280;62796;42.654;23.316;2023-04-06T05:48:19;94226.00;;;4.38;46.74
29197;BME280;62796;42.654;23.316;2023-04-06T05:50:48;94227.22;;;4.46;46.79
29197;BME280;62796;42.654;23.316;2023-04-06T05:53:15;94225.56;;;4.48;46.88
29197;BME280;62796;42.654;23.316;2023-04-06T05:55:41;94184.81;;;4.20;46.89
29197;BME280;62796;42.654;23.316;2023-04-06T05:58:06;94208.91;;;4.34;46.48
29197;BME280;62796;42.654;23.316;2023-04-06T06:00:32;94195.03;;;4.28;46.67
29197;BME280;62796;42.654;23.316;2023-04-06T06:02:57;94186.97;;;4.25;46.96
29197;BME280;62796;42.654;23.316;2023-04-06T06:05:23;94210.94;;;4.52;47.14
29197;BME280;62796;42.654;23.316;2023-04-06T06:07:48;94193.38;;;4.40;46.77
29197;BME280;62796;42.654;23.316;2023-04-06T06:10:14;94196.59;;;4.38;47.14
29197;BME280;62796;42.654;23.316;2023-04-06T06:12:40;94215.09;;;4.65;46.68
29197;BME280;62796;42.654;23.316;2023-04-06T06:15:07;94205.94;;;4.59;46.62
29197;BME280;62796;42.654;23.316;2023-04-06T06:17:32;94216.16;;;4.77;46.28
29197;BME280;62796;42.654;23.316;2023-04-06T06:19:58;94193.59;;;4.64;46.41
29197;BME280;62796;42.654;23.316;2023-04-06T06:22:23;94214.66;;;4.94;46.51
29197;BME280;62796;42.654;23.316;2023-04-06T06:24:49;94218.16;;;5.13;46.24
29197;BME280;62796;42.654;23.316;2023-04-06T06:27:15;94205.97;;;5.14;45.52
29197;BME280;62796;42.654;23.316;2023-04-06T06:29:41;94211.13;;;5.02;46.14
29197;BME280;62796;42.654;23.316;2023-04-06T06:32:06;94212.06;;;4.99;46.08
29197;BME280;62796;42.654;23.316;2023-04-06T06:34:34;94207.19;;;5.22;45.92
29197;BME280;62796;42.654;23.316;2023-04-06T06:37:00;94218.44;;;5.33;45.15
29197;BME280;62796;42.654;23.316;2023-04-06T06:39:27;94212.34;;;5.29;45.65
29197;BME280;62796;42.654;23.316;2023-04-06T06:41:53;94216.91;;;5.50;45.06
29197;BME280;62796;42.654;23.316;2023-04-06T06:44:20;94181.66;;;5.48;44.72
29197;BME280;62796;42.654;23.316;2023-04-06T06:46:47;94190.28;;;5.74;44.21
29197;BME280;62796;42.654;23.316;2023-04-06T06:49:13;94214.06;;;5.95;43.92
29197;BME280;62796;42.654;23.316;2023-04-06T06:51:39;94197.56;;;6.04;43.67
29197;BME280;62796;42.654;23.316;2023-04-06T06:54:08;94210.13;;;5.87;44.35
29197;BME280;62796;42.654;23.316;2023-04-06T06:56:33;94214.06;;;5.95;45.03
29197;BME280;62796;42.654;23.316;2023-04-06T06:59:00;94187.13;;;6.18;43.48
29197;BME280;62796;42.654;23.316;2023-04-06T07:01:26;94179.41;;;6.31;42.86
29197;BME280;62796;42.654;23.316;2023-04-06T07:03:51;94189.75;;;6.45;42.60
29197;BME280;62796;42.654;23.316;2023-04-06T07:06:17;94210.50;;;6.69;42.14
29197;BME280;62796;42.654;23.316;2023-04-06T07:08:42;94177.03;;;6.71;41.97
29197;BME280;62796;42.654;23.316;2023-04-06T07:11:08;94202.69;;;7.15;41.01
29197;BME280;62796;42.654;23.316;2023-04-06T07:13:33;94206.72;;;7.29;40.59
29197;BME280;62796;42.654;23.316;2023-04-06T07:15:59;94193.06;;;7.35;40.67
29197;BME280;62796;42.654;23.316;2023-04-06T07:18:25;94195.53;;;7.47;40.50
29197;BME280;62796;42.654;23.316;2023-04-06T07:20:50;94169.50;;;7.48;39.87
29197;BME280;62796;42.654;23.316;2023-04-06T07:23:16;94194.59;;;7.79;39.74
29197;BME280;62796;42.654;23.316;2023-04-06T07:25:41;94183.38;;;7.83;38.95
29197;BME280;62796;42.654;23.316;2023-04-06T07:28:07;94170.22;;;8.07;38.62
29197;BME280;62796;42.654;23.316;2023-04-06T07:30:32;94196.50;;;7.88;39.20
29197;BME280;62796;42.654;23.316;2023-04-06T07:32:58;94197.47;;;8.00;38.64
29197;BME280;62796;42.654;23.316;2023-04-06T07:35:27;94208.28;;;8.32;38.10
29197;BME280;62796;42.654;23.316;2023-04-06T07:37:53;94205.00;;;8.49;37.27
29197;BME280;62796;42.654;23.316;2023-04-06T07:40:19;94173.59;;;8.46;37.33
29197;BME280;62796;42.654;23.316;2023-04-06T07:42:45;94195.72;;;8.66;36.86
29197;BME280;62796;42.654;23.316;2023-04-06T07:45:11;94190.97;;;8.87;36.56
29197;BME280;62796;42.654;23.316;2023-04-06T07:47:36;94182.06;;;8.77;36.92
29197;BME280;62796;42.654;23.316;2023-04-06T07:50:02;94187.25;;;9.10;36.25
29197;BME280;62796;42.654;23.316;2023-04-06T07:52:28;94193.53;;;9.11;36.97
29197;BME280;62796;42.654;23.316;2023-04-06T07:54:53;94196.16;;;9.20;36.47
29197;BME280;62796;42.654;23.316;2023-04-06T07:57:19;94197.25;;;9.28;36.38
29197;BME280;62796;42.654;23.316;2023-04-06T07:59:44;94203.13;;;9.15;36.82
29197;BME280;62796;42.654;23.316;2023-04-06T08:02:10;94204.13;;;9.38;36.69
29197;BME280;62796;42.654;23.316;2023-04-06T08:04:35;94203.81;;;9.30;36.90
29197;BME280;62796;42.654;23.316;2023-04-06T08:07:01;94199.69;;;9.00;37.88
29197;BME280;62796;42.654;23.316;2023-04-06T08:09:26;94192.84;;;8.96;36.75
29197;BME280;62796;42.654;23.316;2023-04-06T08:11:52;94196.66;;;8.98;37.33
29197;BME280;62796;42.654;23.316;2023-04-06T08:14:18;94196.19;;;8.65;38.03
29197;BME280;62796;42.654;23.316;2023-04-06T08:16:43;94195.44;;;8.64;38.21
29197;BME280;62796;42.654;23.316;2023-04-06T08:19:09;94202.19;;;8.98;38.42
29197;BME280;62796;42.654;23.316;2023-04-06T08:21:35;94190.16;;;9.01;37.80
29197;BME280;62796;42.654;23.316;2023-04-06T08:24:02;94204.81;;;9.07;37.10
29197;BME280;62796;42.654;23.316;2023-04-06T08:26:27;94201.88;;;8.96;37.10
29197;BME280;62796;42.654;23.316;2023-04-06T08:28:53;94201.06;;;7.91;39.32
29197;BME280;62796;42.654;23.316;2023-04-06T08:31:19;94210.34;;;8.38;38.60
29197;BME280;62796;42.654;23.316;2023-04-06T08:33:45;94200.75;;;8.68;37.57
29197;BME280;62796;42.654;23.316;2023-04-06T08:36:12;94202.00;;;8.87;36.83
29197;BME280;62796;42.654;23.316;2023-04-06T08:38:38;94211.63;;;8.71;36.30
29197;BME280;62796;42.654;23.316;2023-04-06T08:41:11;94187.28;;;8.55;36.50
29197;BME280;62796;42.654;23.316;2023-04-06T08:43:46;94206.16;;;8.97;35.91
29197;BME280;62796;42.654;23.316;2023-04-06T08:46:12;94186.88;;;8.62;35.68
29197;BME280;62796;42.654;23.316;2023-04-06T08:48:41;94202.44;;;9.20;35.00
29197;BME280;62796;42.654;23.316;2023-04-06T08:51:09;94208.78;;;9.47;34.23
29197;BME280;62796;42.654;23.316;2023-04-06T08:53:35;94212.09;;;9.30;34.65
29197;BME280;62796;42.654;23.316;2023-04-06T08:56:01;94205.41;;;9.63;33.98
29197;BME280;62796;42.654;23.316;2023-04-06T08:58:33;94205.44;;;9.88;33.86
29197;BME280;62796;42.654;23.316;2023-04-06T09:00:58;94179.72;;;9.57;34.32
29197;BME280;62796;42.654;23.316;2023-04-06T09:03:26;94200.78;;;10.31;33.92
29197;BME280;62796;42.654;23.316;2023-04-06T09:05:52;94205.31;;;10.66;32.50
29197;BME280;62796;42.654;23.316;2023-04-06T09:08:17;94199.66;;;10.86;32.90
29197;BME280;62796;42.654;23.316;2023-04-06T09:10:43;94195.44;;;10.96;31.47
29197;BME280;62796;42.654;23.316;2023-04-06T09:13:08;94191.66;;;10.99;31.37
29197;BME280;62796;42.654;23.316;2023-04-06T09:15:34;94195.47;;;11.07;31.56
29197;BME280;62796;42.654;23.316;2023-04-06T09:18:00;94185.16;;;10.60;32.63
29197;BME280;62796;42.654;23.316;2023-04-06T09:20:26;94184.34;;;10.96;31.54
29197;BME280;62796;42.654;23.316;2023-04-06T09:22:54;94194.25;;;10.66;32.44
29197;BME280;62796;42.654;23.316;2023-04-06T09:25:21;94191.72;;;10.68;32.45
29197;BME280;62796;42.654;23.316;2023-04-06T09:27:48;94198.50;;;10.67;32.53
29197;BME280;62796;42.654;23.316;2023-04-06T09:30:23;94190.59;;;10.48;32.95
29197;BME280;62796;42.654;23.316;2023-04-06T09:32:51;94200.38;;;10.44;32.87
29197;BME280;62796;42.654;23.316;2023-04-06T09:35:18;94199.06;;;10.39;32.54
29197;BME280;62796;42.654;23.316;2023-04-06T09:37:46;94162.22;;;10.22;32.66
29197;BME280;62796;42.654;23.316;2023-04-06T09:40:13;94187.28;;;10.39;32.37
29197;BME280;62796;42.654;23.316;2023-04-06T09:42:41;94195.59;;;10.13;32.37
29197;BME280;62796;42.654;23.316;2023-04-06T09:45:07;94191.91;;;9.96;32.99
29197;BME280;62796;42.654;23.316;2023-04-06T09:47:33;94187.75;;;9.80;33.22
29197;BME280;62796;42.654;23.316;2023-04-06T09:50:02;94191.09;;;9.90;33.32
29197;BME280;62796;42.654;23.316;2023-04-06T09:52:39;94197.31;;;10.11;32.83
29197;BME280;62796;42.654;23.316;2023-04-06T09:55:05;94196.41;;;10.19;32.69
29197;BME280;62796;42.654;23.316;2023-04-06T09:57:52;94182.16;;;9.75;33.56
29197;BME280;62796;42.654;23.316;2023-04-06T10:00:22;94198.25;;;10.28;32.22
29197;BME280;62796;42.654;23.316;2023-04-06T10:03:26;94204.09;;;10.72;31.67
29197;BME280;62796;42.654;23.316;2023-04-06T10:05:59;94143.72;;;10.39;31.25
29197;BME280;62796;42.654;23.316;2023-04-06T10:08:29;94200.88;;;10.79;31.89
29197;BME280;62796;42.654;23.316;2023-04-06T10:10:58;94193.53;;;11.24;31.13
29197;BME280;62796;42.654;23.316;2023-04-06T10:13:25;94188.63;;;11.61;29.86
29197;BME280;62796;42.654;23.316;2023-04-06T10:15:51;94169.91;;;11.45;30.06
29197;BME280;62796;42.654;23.316;2023-04-06T10:18:17;94184.81;;;11.53;29.63
29197;BME280;62796;42.654;23.316;2023-04-06T10:20:51;94188.94;;;11.10;29.98
29197;BME280;62796;42.654;23.316;2023-04-06T10:25:54;94176.19;;;11.35;30.16
29197;BME280;62796;42.654;23.316;2023-04-06T10:28:20;94180.78;;;11.60;29.59
29197;BME280;62796;42.654;23.316;2023-04-06T10:30:46;94168.59;;;11.30;29.38
29197;BME280;62796;42.654;23.316;2023-04-06T10:35:40;94173.31;;;11.94;29.40
29197;BME280;62796;42.654;23.316;2023-04-06T10:38:06;94164.47;;;12.01;29.47
29197;BME280;62796;42.654;23.316;2023-04-06T10:40:36;94157.94;;;12.15;28.84
29197;BME280;62796;42.654;23.316;2023-04-06T10:43:32;94163.47;;;11.82;29.12
29197;BME280;62796;42.654;23.316;2023-04-06T10:46:00;94166.50;;;11.84;28.79
29197;BME280;62796;42.654;23.316;2023-04-06T10:48:39;94159.34;;;11.49;29.70
29197;BME280;62796;42.654;23.316;2023-04-06T10:51:15;94172.44;;;11.43;30.55
29197;BME280;62796;42.654;23.316;2023-04-06T10:53:42;94163.94;;;11.75;29.89
29197;BME280;62796;42.654;23.316;2023-04-06T10:56:13;94166.25;;;11.93;29.65
29197;BME280;62796;42.654;23.316;2023-04-06T10:58:46;94165.25;;;12.24;29.33
29197;BME280;62796;42.654;23.316;2023-04-06T11:01:12;94139.75;;;11.92;28.96
29197;BME280;62796;42.654;23.316;2023-04-06T11:03:57;94143.03;;;11.74;29.38
29197;BME280;62796;42.654;23.316;2023-04-06T11:06:27;94156.44;;;11.97;29.26
29197;BME280;62796;42.654;23.316;2023-04-06T11:08:55;94152.38;;;12.26;29.53
29197;BME280;62796;42.654;23.316;2023-04-06T11:11:22;94147.34;;;11.97;29.02
29197;BME280;62796;42.654;23.316;2023-04-06T11:13:50;94160.97;;;12.06;28.72
29197;BME280;62796;42.654;23.316;2023-04-06T11:21:45;94141.28;;;11.71;29.21
29197;BME280;62796;42.654;23.316;2023-04-06T11:24:15;94141.19;;;11.65;29.63
29197;BME280;62796;42.654;23.316;2023-04-06T11:26:42;94138.13;;;11.35;30.20
29197;BME280;62796;42.654;23.316;2023-04-06T11:29:09;94126.66;;;11.00;30.28
29197;BME280;62796;42.654;23.316;2023-04-06T11:31:48;94134.69;;;10.87;30.84
29197;BME280;62796;42.654;23.316;2023-04-06T11:34:22;94137.44;;;10.87;31.09
29197;BME280;62796;42.654;23.316;2023-04-06T11:36:49;94130.03;;;10.67;31.41
29197;BME280;62796;42.654;23.316;2023-04-06T11:39:21;94110.97;;;10.32;32.36
29197;BME280;62796;42.654;23.316;2023-04-06T11:41:49;94135.75;;;10.52;31.90
29197;BME280;62796;42.654;23.316;2023-04-06T11:44:15;94134.91;;;10.35;32.08
29197;BME280;62796;42.654;23.316;2023-04-06T11:46:40;94128.75;;;10.20;32.04
29197;BME280;62796;42.654;23.316;2023-04-06T11:49:06;94130.00;;;10.19;32.27
29197;BME280;62796;42.654;23.316;2023-04-06T11:51:35;94128.50;;;9.92;32.96
29197;BME280;62796;42.654;23.316;2023-04-06T11:54:01;94124.19;;;9.86;33.05
29197;BME280;62796;42.654;23.316;2023-04-06T11:56:29;94126.47;;;9.87;33.25
29197;BME280;62796;42.654;23.316;2023-04-06T11:58:57;94127.63;;;9.75;32.92
29197;BME280;62796;42.654;23.316;2023-04-06T12:01:23;94129.97;;;9.57;33.43
29197;BME280;62796;42.654;23.316;2023-04-06T12:03:50;94133.53;;;9.63;33.57
29197;BME280;62796;42.654;23.316;2023-04-06T12:06:16;94131.31;;;9.67;33.39
29197;BME280;62796;42.654;23.316;2023-04-06T12:08:42;94127.03;;;9.66;33.38
29197;BME280;62796;42.654;23.316;2023-04-06T12:11:07;94137.31;;;9.65;33.29
29197;BME280;62796;42.654;23.316;2023-04-06T12:13:33;94128.88;;;9.49;33.25
29197;BME280;62796;42.654;23.316;2023-04-06T12:15:58;94119.53;;;9.20;33.27
29197;BME280;62796;42.654;23.316;2023-04-06T12:18:24;94095.94;;;8.99;33.55
29197;BME280;62796;42.654;23.316;2023-04-06T12:20:51;94131.34;;;9.21;33.82
29197;BME280;62796;42.654;23.316;2023-04-06T12:23:17;94124.75;;;9.13;33.95
29197;BME280;62796;42.654;23.316;2023-04-06T12:25:43;94129.50;;;9.12;34.35
29197;BME280;62796;42.654;23.316;2023-04-06T12:28:08;94127.66;;;9.04;34.74
29197;BME280;62796;42.654;23.316;2023-04-06T12:30:37;94104.56;;;8.81;34.64
29197;BME280;62796;42.654;23.316;2023-04-06T12:33:03;94120.16;;;8.84;35.26
29197;BME280;62796;42.654;23.316;2023-04-06T12:35:28;94128.59;;;8.75;35.57
29197;BME280;62796;42.654;23.316;2023-04-06T12:37:54;94128.03;;;8.71;35.35
29197;BME280;62796;42.654;23.316;2023-04-06T12:40:20;94103.19;;;8.51;35.93
29197;BME280;62796;42.654;23.316;2023-04-06T12:42:46;94110.75;;;8.56;35.50
29197;BME280;62796;42.654;23.316;2023-04-06T12:45:12;94113.84;;;8.43;35.58
29197;BME280;62796;42.654;23.316;2023-04-06T12:47:37;94114.88;;;8.46;35.69
29197;BME280;62796;42.654;23.316;2023-04-06T12:50:05;94108.97;;;8.53;35.14
29197;BME280;62796;42.654;23.316;2023-04-06T12:52:31;94083.50;;;8.43;35.34
29197;BME280;62796;42.654;23.316;2023-04-06T12:55:00;94085.84;;;8.50;34.99
29197;BME280;62796;42.654;23.316;2023-04-06T12:57:26;94099.59;;;8.65;34.88
29197;BME280;62796;42.654;23.316;2023-04-06T12:59:51;94104.97;;;8.74;34.82
29197;BME280;62796;42.654;23.316;2023-04-06T13:02:17;94100.13;;;8.89;35.13
29197;BME280;62796;42.654;23.316;2023-04-06T13:04:45;94104.69;;;8.92;34.23